CA27 weather

Alcatraz Heliport
San Francisco, California, United States

Public forecast

Using degrees Fahrenheit for public forecast. Weather courtesy of forecast.io.

METAR (pilot weather report)

Closest report is Metropolitan Oakland International Airport, 11.4 nm (21.0 km) ESE. Retrieved 2019/08/25 02:53 UTC (53 minutes ago):

KOAK 250253Z 31008KT 10SM FEW008 18/14 A2994 RMK AO2 SLP139 T01830144 53002

TAF (pilot weather forecast)

Forecast is more than 12 hours old.

Closest forecast is Metropolitan Oakland International Airport, 11.4 nm (21.0 km) ESE. Retrieved 2019/08/24 00:22 UTC (1 day ago):

TAF KOAK 242320Z 2500/2606 30015KT P6SM FEW010 FM250300 29010KT P6SM FEW010 FM250900 33005KT P6SM BKN010 FM251500 33004KT P6SM OVC008 FM251700 27006KT P6SM FEW010 FM252100 30010KT P6SM SKC FM260300 29008KT P6SM SKC